Aérodrome :
LOGIN :

S'inscrire | Disclaimer

   EN    FR    IT 

 










Légende :    VFR   VFR Marginal   IFR   IFR Intensif   IFR Très Intensif
Visi : 
Plafond : 
>= 8 km
>= 3000ft
5 à 8 km
1000 à 3000 ft
1500m à 5 km
500 à 1000 ft
800 à 1500m
200 à 500 ft
< 800m
< 200 ft
Symboles :   Orages  Brouillard  Fortes neiges  Fortes précipitations  Vent > 20 kt
SIGMETs :   Divers  Orages  Givrage  Turbulence  Onde Orograph.  Cendres Volcan.







- Altitude de l'aérodrome : 257 ft
- Code IATA : MAN
- Voir les cartes d'approche


EGCC - Manchester

DERNIER METAR :
  • 210420Z AUTO 16006KT 100V200 9999 BKN009 OVC019 15/13 Q1010 TEMPO BKN010

METARs EXPIRÉS :
  • 210350Z AUTO 17006KT 080V230 9999 BKN010 15/13 Q1010 TEMPO BN009
  • 210320Z AUTO 17006KT 100V230 9999 OVC010 15/13 Q1010 TEMPO BKN009
  • 210250Z AUTO 18006KT 110V220 9999 OVC009 14/13 Q1010 TEMPO BKN010
  • 210220Z AUTO 18005KT 130V210 9999 BKN010 OVC023 14/13 Q1011 TEMPO BKN009
  • 210150Z AUTO 17006KT 110V230 9999 OVC009 14/13 Q1011 TEMPO BKN010

TAF AMD TAF EGCC
Valide du 21 à 01h jusqu'au 22 à 06h UTC


210159Z 2101/2206 17010KT 9999 SCT015
TEMPO 2101/2105 BKN008
PROB30
TEMPO 2101/2115 20016G26KT
TEMPO 2105/2115 6000 RA BKN010
PROB30
TEMPO 2105/2115 4000 RADZ BKN005
BECMG 2112/2115 27009KT
ATIS : +44 161 499 2324
Pas de NOTAMs connus pour ce terrain.



MET'MAP, la Météo Aéronautique d'un coup d'oeil ! - Copyright ORBIFLY Décembre 2007 - Disclaimer

ORBIFLY MET'MAP TEAM :

Programmation & Développement : Alexandra Zaïnal
Conception & Développement : Baudouin d'Aumeries
Co-Programmation & Développement : Marc-Olivier Méhu
Soutien technique & logistique : Manuel Goepfert

Contact : metmap@orbifly.com




SOURCES & CREDITS :

   NOAA